sensor_id;sensor_type;location;lat;lon;timestamp;pressure;altitude;pressure_sealevel;temperature
15079;BMP180;6932;51.438;5.470;2022-11-11T00:01:06;102506.00;;;15.50
15079;BMP180;6932;51.438;5.470;2022-11-11T00:03:33;102494.00;;;15.50
15079;BMP180;6932;51.438;5.470;2022-11-11T00:06:09;102489.00;;;15.50
15079;BMP180;6932;51.438;5.470;2022-11-11T00:08:38;102500.00;;;15.50
15079;BMP180;6932;51.438;5.470;2022-11-11T00:11:08;102498.00;;;15.50
15079;BMP180;6932;51.438;5.470;2022-11-11T00:13:35;102498.00;;;15.50
15079;BMP180;6932;51.438;5.470;2022-11-11T00:16:16;102505.00;;;15.50
15079;BMP180;6932;51.438;5.470;2022-11-11T00:18:43;102514.00;;;15.50
15079;BMP180;6932;51.438;5.470;2022-11-11T00:21:28;102523.00;;;15.50
15079;BMP180;6932;51.438;5.470;2022-11-11T00:24:28;102520.00;;;15.50
15079;BMP180;6932;51.438;5.470;2022-11-11T00:27:13;102506.00;;;15.50
15079;BMP180;6932;51.438;5.470;2022-11-11T00:29:40;102505.00;;;15.50
15079;BMP180;6932;51.438;5.470;2022-11-11T00:32:07;102494.00;;;15.50
15079;BMP180;6932;51.438;5.470;2022-11-11T00:34:54;102497.00;;;15.60
15079;BMP180;6932;51.438;5.470;2022-11-11T00:37:40;102516.00;;;15.50
15079;BMP180;6932;51.438;5.470;2022-11-11T00:40:09;102520.00;;;15.60
15079;BMP180;6932;51.438;5.470;2022-11-11T00:42:35;102516.00;;;15.60
15079;BMP180;6932;51.438;5.470;2022-11-11T00:45:01;102518.00;;;15.60
15079;BMP180;6932;51.438;5.470;2022-11-11T00:47:27;102522.00;;;15.60
15079;BMP180;6932;51.438;5.470;2022-11-11T00:53:06;102527.00;;;15.60
15079;BMP180;6932;51.438;5.470;2022-11-11T00:55:33;102528.00;;;15.60
15079;BMP180;6932;51.438;5.470;2022-11-11T00:57:58;102538.00;;;15.60
15079;BMP180;6932;51.438;5.470;2022-11-11T01:00:25;102518.00;;;15.60
15079;BMP180;6932;51.438;5.470;2022-11-11T01:02:51;102523.00;;;15.60
15079;BMP180;6932;51.438;5.470;2022-11-11T01:05:17;102526.00;;;15.60
15079;BMP180;6932;51.438;5.470;2022-11-11T01:07:43;102525.00;;;15.60
15079;BMP180;6932;51.438;5.470;2022-11-11T01:10:10;102532.00;;;15.60
15079;BMP180;6932;51.438;5.470;2022-11-11T01:12:36;102543.00;;;15.60
15079;BMP180;6932;51.438;5.470;2022-11-11T01:15:02;102553.00;;;15.70
15079;BMP180;6932;51.438;5.470;2022-11-11T01:17:28;102546.00;;;15.70
15079;BMP180;6932;51.438;5.470;2022-11-11T01:19:54;102555.00;;;15.70
15079;BMP180;6932;51.438;5.470;2022-11-11T01:22:20;102555.00;;;15.70
15079;BMP180;6932;51.438;5.470;2022-11-11T01:24:46;102549.00;;;15.70
15079;BMP180;6932;51.438;5.470;2022-11-11T01:27:12;102543.00;;;15.70
15079;BMP180;6932;51.438;5.470;2022-11-11T01:29:39;102537.00;;;15.70
15079;BMP180;6932;51.438;5.470;2022-11-11T01:32:05;102537.00;;;15.70
15079;BMP180;6932;51.438;5.470;2022-11-11T01:34:31;102552.00;;;15.70
15079;BMP180;6932;51.438;5.470;2022-11-11T01:36:57;102540.00;;;15.70
15079;BMP180;6932;51.438;5.470;2022-11-11T01:39:23;102538.00;;;15.70
15079;BMP180;6932;51.438;5.470;2022-11-11T01:41:49;102545.00;;;15.70
15079;BMP180;6932;51.438;5.470;2022-11-11T01:46:48;102536.00;;;15.70
15079;BMP180;6932;51.438;5.470;2022-11-11T01:52:25;102534.00;;;15.70
15079;BMP180;6932;51.438;5.470;2022-11-11T01:57:37;102519.00;;;15.60
15079;BMP180;6932;51.438;5.470;2022-11-11T02:00:09;102515.00;;;15.60
15079;BMP180;6932;51.438;5.470;2022-11-11T02:02:58;102528.00;;;15.70
15079;BMP180;6932;51.438;5.470;2022-11-11T02:05:27;102525.00;;;15.60
15079;BMP180;6932;51.438;5.470;2022-11-11T02:08:35;102524.00;;;15.60
15079;BMP180;6932;51.438;5.470;2022-11-11T02:11:10;102523.00;;;15.60
15079;BMP180;6932;51.438;5.470;2022-11-11T02:13:40;102522.00;;;15.60
15079;BMP180;6932;51.438;5.470;2022-11-11T02:16:25;102526.00;;;15.60
15079;BMP180;6932;51.438;5.470;2022-11-11T02:18:51;102529.00;;;15.60
15079;BMP180;6932;51.438;5.470;2022-11-11T02:21:32;102531.00;;;15.60
15079;BMP180;6932;51.438;5.470;2022-11-11T02:24:16;102527.00;;;15.60
15079;BMP180;6932;51.438;5.470;2022-11-11T02:26:44;102521.00;;;15.60
15079;BMP180;6932;51.438;5.470;2022-11-11T02:29:15;102520.00;;;15.60
15079;BMP180;6932;51.438;5.470;2022-11-11T02:31:41;102514.00;;;15.60
15079;BMP180;6932;51.438;5.470;2022-11-11T02:34:07;102506.00;;;15.60
15079;BMP180;6932;51.438;5.470;2022-11-11T02:36:34;102511.00;;;15.60
15079;BMP180;6932;51.438;5.470;2022-11-11T02:39:01;102500.00;;;15.60
15079;BMP180;6932;51.438;5.470;2022-11-11T02:41:27;102504.00;;;15.60
15079;BMP180;6932;51.438;5.470;2022-11-11T02:44:11;102497.00;;;15.60
15079;BMP180;6932;51.438;5.470;2022-11-11T02:46:37;102492.00;;;15.60
15079;BMP180;6932;51.438;5.470;2022-11-11T02:49:03;102499.00;;;15.60
15079;BMP180;6932;51.438;5.470;2022-11-11T02:51:29;102506.00;;;15.60
15079;BMP180;6932;51.438;5.470;2022-11-11T02:53:55;102498.00;;;15.60
15079;BMP180;6932;51.438;5.470;2022-11-11T02:56:24;102505.00;;;15.60
15079;BMP180;6932;51.438;5.470;2022-11-11T02:59:09;102498.00;;;15.50
15079;BMP180;6932;51.438;5.470;2022-11-11T03:01:35;102497.00;;;15.50
15079;BMP180;6932;51.438;5.470;2022-11-11T03:04:00;102486.00;;;15.50
15079;BMP180;6932;51.438;5.470;2022-11-11T03:06:26;102486.00;;;15.50
15079;BMP180;6932;51.438;5.470;2022-11-11T03:08:54;102474.00;;;15.50
15079;BMP180;6932;51.438;5.470;2022-11-11T03:11:19;102486.00;;;15.50
15079;BMP180;6932;51.438;5.470;2022-11-11T03:13:57;102485.00;;;15.50
15079;BMP180;6932;51.438;5.470;2022-11-11T03:16:23;102488.00;;;15.50
15079;BMP180;6932;51.438;5.470;2022-11-11T03:19:08;102485.00;;;15.50
15079;BMP180;6932;51.438;5.470;2022-11-11T03:21:34;102477.00;;;15.50
15079;BMP180;6932;51.438;5.470;2022-11-11T03:24:00;102486.00;;;15.50
15079;BMP180;6932;51.438;5.470;2022-11-11T03:26:26;102460.00;;;15.50
15079;BMP180;6932;51.438;5.470;2022-11-11T03:28:52;102479.00;;;15.50
15079;BMP180;6932;51.438;5.470;2022-11-11T03:31:18;102478.00;;;15.50
15079;BMP180;6932;51.438;5.470;2022-11-11T03:33:43;102492.00;;;15.50
15079;BMP180;6932;51.438;5.470;2022-11-11T03:36:09;102484.00;;;15.40
15079;BMP180;6932;51.438;5.470;2022-11-11T03:38:35;102495.00;;;15.40
15079;BMP180;6932;51.438;5.470;2022-11-11T03:41:01;102491.00;;;15.40
15079;BMP180;6932;51.438;5.470;2022-11-11T03:43:30;102496.00;;;15.40
15079;BMP180;6932;51.438;5.470;2022-11-11T03:45:59;102493.00;;;15.40
15079;BMP180;6932;51.438;5.470;2022-11-11T03:48:28;102500.00;;;15.40
15079;BMP180;6932;51.438;5.470;2022-11-11T03:50:54;102500.00;;;15.40
15079;BMP180;6932;51.438;5.470;2022-11-11T03:53:21;102491.00;;;15.30
15079;BMP180;6932;51.438;5.470;2022-11-11T03:55:49;102486.00;;;15.30
15079;BMP180;6932;51.438;5.470;2022-11-11T03:58:16;102502.00;;;15.30
15079;BMP180;6932;51.438;5.470;2022-11-11T04:00:44;102496.00;;;15.30
15079;BMP180;6932;51.438;5.470;2022-11-11T04:03:15;102495.00;;;15.30
15079;BMP180;6932;51.438;5.470;2022-11-11T04:06:00;102511.00;;;15.20
15079;BMP180;6932;51.438;5.470;2022-11-11T04:08:47;102509.00;;;15.20
15079;BMP180;6932;51.438;5.470;2022-11-11T04:11:41;102503.00;;;15.20
15079;BMP180;6932;51.438;5.470;2022-11-11T04:14:12;102498.00;;;15.20
15079;BMP180;6932;51.438;5.470;2022-11-11T04:16:58;102502.00;;;15.20
15079;BMP180;6932;51.438;5.470;2022-11-11T04:19:24;102511.00;;;15.20
15079;BMP180;6932;51.438;5.470;2022-11-11T04:22:09;102506.00;;;15.10
15079;BMP180;6932;51.438;5.470;2022-11-11T04:24:35;102500.00;;;15.10
15079;BMP180;6932;51.438;5.470;2022-11-11T04:27:20;102501.00;;;15.10
15079;BMP180;6932;51.438;5.470;2022-11-11T04:29:46;102497.00;;;15.10
15079;BMP180;6932;51.438;5.470;2022-11-11T04:32:20;102497.00;;;15.10
15079;BMP180;6932;51.438;5.470;2022-11-11T04:35:11;102502.00;;;15.00
15079;BMP180;6932;51.438;5.470;2022-11-11T04:37:47;102499.00;;;15.00
15079;BMP180;6932;51.438;5.470;2022-11-11T04:40:36;102501.00;;;14.90
15079;BMP180;6932;51.438;5.470;2022-11-11T04:43:21;102509.00;;;14.90
15079;BMP180;6932;51.438;5.470;2022-11-11T04:45:46;102502.00;;;14.80
15079;BMP180;6932;51.438;5.470;2022-11-11T04:48:12;102515.00;;;14.80
15079;BMP180;6932;51.438;5.470;2022-11-11T04:50:41;102495.00;;;14.80
15079;BMP180;6932;51.438;5.470;2022-11-11T04:53:11;102500.00;;;14.80
15079;BMP180;6932;51.438;5.470;2022-11-11T04:55:38;102499.00;;;14.70
15079;BMP180;6932;51.438;5.470;2022-11-11T04:58:26;102499.00;;;14.70
15079;BMP180;6932;51.438;5.470;2022-11-11T05:00:52;102498.00;;;14.60
15079;BMP180;6932;51.438;5.470;2022-11-11T05:03:18;102500.00;;;14.60
15079;BMP180;6932;51.438;5.470;2022-11-11T05:05:54;102502.00;;;14.60
15079;BMP180;6932;51.438;5.470;2022-11-11T05:08:47;102508.00;;;14.50
15079;BMP180;6932;51.438;5.470;2022-11-11T05:11:29;102499.00;;;14.50
15079;BMP180;6932;51.438;5.470;2022-11-11T05:13:58;102492.00;;;14.50
15079;BMP180;6932;51.438;5.470;2022-11-11T05:16:57;102496.00;;;14.40
15079;BMP180;6932;51.438;5.470;2022-11-11T05:19:42;102496.00;;;14.30
15079;BMP180;6932;51.438;5.470;2022-11-11T05:22:32;102511.00;;;14.30
15079;BMP180;6932;51.438;5.470;2022-11-11T05:24:59;102501.00;;;14.30
15079;BMP180;6932;51.438;5.470;2022-11-11T05:27:44;102506.00;;;14.20
15079;BMP180;6932;51.438;5.470;2022-11-11T05:30:13;102514.00;;;14.20
15079;BMP180;6932;51.438;5.470;2022-11-11T05:32:40;102499.00;;;14.20
15079;BMP180;6932;51.438;5.470;2022-11-11T05:35:07;102507.00;;;14.20
15079;BMP180;6932;51.438;5.470;2022-11-11T05:37:34;102504.00;;;14.20
15079;BMP180;6932;51.438;5.470;2022-11-11T05:40:00;102504.00;;;14.10
15079;BMP180;6932;51.438;5.470;2022-11-11T05:42:26;102508.00;;;14.10
15079;BMP180;6932;51.438;5.470;2022-11-11T05:44:52;102512.00;;;14.10
15079;BMP180;6932;51.438;5.470;2022-11-11T05:47:18;102504.00;;;14.10
15079;BMP180;6932;51.438;5.470;2022-11-11T05:49:44;102515.00;;;14.10
15079;BMP180;6932;51.438;5.470;2022-11-11T05:52:14;102516.00;;;14.10
15079;BMP180;6932;51.438;5.470;2022-11-11T05:54:44;102510.00;;;14.10
15079;BMP180;6932;51.438;5.470;2022-11-11T05:57:10;102517.00;;;14.00
15079;BMP180;6932;51.438;5.470;2022-11-11T05:59:36;102513.00;;;14.00
15079;BMP180;6932;51.438;5.470;2022-11-11T06:02:02;102503.00;;;14.00
15079;BMP180;6932;51.438;5.470;2022-11-11T06:04:28;102508.00;;;14.00
15079;BMP180;6932;51.438;5.470;2022-11-11T06:06:54;102517.00;;;14.00
15079;BMP180;6932;51.438;5.470;2022-11-11T06:09:20;102520.00;;;14.00
15079;BMP180;6932;51.438;5.470;2022-11-11T06:11:46;102515.00;;;13.90
15079;BMP180;6932;51.438;5.470;2022-11-11T06:14:12;102518.00;;;13.90
15079;BMP180;6932;51.438;5.470;2022-11-11T06:16:38;102506.00;;;14.00
15079;BMP180;6932;51.438;5.470;2022-11-11T06:19:04;102515.00;;;13.90
15079;BMP180;6932;51.438;5.470;2022-11-11T06:21:30;102524.00;;;13.90
15079;BMP180;6932;51.438;5.470;2022-11-11T06:24:16;102523.00;;;13.90
15079;BMP180;6932;51.438;5.470;2022-11-11T06:26:44;102527.00;;;13.90
15079;BMP180;6932;51.438;5.470;2022-11-11T06:29:10;102531.00;;;13.90
15079;BMP180;6932;51.438;5.470;2022-11-11T06:31:36;102533.00;;;13.90
15079;BMP180;6932;51.438;5.470;2022-11-11T06:34:04;102531.00;;;13.90
15079;BMP180;6932;51.438;5.470;2022-11-11T06:36:30;102531.00;;;13.90
15079;BMP180;6932;51.438;5.470;2022-11-11T06:38:56;102539.00;;;13.90
15079;BMP180;6932;51.438;5.470;2022-11-11T06:41:22;102541.00;;;13.90
15079;BMP180;6932;51.438;5.470;2022-11-11T06:43:50;102555.00;;;13.90
15079;BMP180;6932;51.438;5.470;2022-11-11T06:46:24;102472.00;;;13.90
15079;BMP180;6932;51.438;5.470;2022-11-11T06:48:53;102464.00;;;13.60
15079;BMP180;6932;51.438;5.470;2022-11-11T06:51:20;102477.00;;;13.30
15079;BMP180;6932;51.438;5.470;2022-11-11T06:53:46;102469.00;;;13.10
15079;BMP180;6932;51.438;5.470;2022-11-11T06:56:14;102461.00;;;12.90
15079;BMP180;6932;51.438;5.470;2022-11-11T06:58:46;102477.00;;;12.80
15079;BMP180;6932;51.438;5.470;2022-11-11T07:01:25;102552.00;;;12.70
15079;BMP180;6932;51.438;5.470;2022-11-11T07:04:09;102559.00;;;12.70
15079;BMP180;6932;51.438;5.470;2022-11-11T07:06:37;102557.00;;;12.90
15079;BMP180;6932;51.438;5.470;2022-11-11T07:09:03;102566.00;;;13.00
15079;BMP180;6932;51.438;5.470;2022-11-11T07:11:29;102567.00;;;13.10
15079;BMP180;6932;51.438;5.470;2022-11-11T07:13:58;102568.00;;;13.20
15079;BMP180;6932;51.438;5.470;2022-11-11T07:16:28;102565.00;;;13.30
15079;BMP180;6932;51.438;5.470;2022-11-11T07:18:57;102560.00;;;13.30
15079;BMP180;6932;51.438;5.470;2022-11-11T07:21:23;102566.00;;;13.40
15079;BMP180;6932;51.438;5.470;2022-11-11T07:23:52;102575.00;;;13.40
15079;BMP180;6932;51.438;5.470;2022-11-11T07:26:21;102566.00;;;13.50
15079;BMP180;6932;51.438;5.470;2022-11-11T07:28:50;102567.00;;;13.50
15079;BMP180;6932;51.438;5.470;2022-11-11T07:31:16;102573.00;;;13.60
15079;BMP180;6932;51.438;5.470;2022-11-11T07:33:41;102566.00;;;13.60
15079;BMP180;6932;51.438;5.470;2022-11-11T07:36:11;102573.00;;;13.60
15079;BMP180;6932;51.438;5.470;2022-11-11T07:38:40;102579.00;;;13.60
15079;BMP180;6932;51.438;5.470;2022-11-11T07:41:05;102582.00;;;13.70
15079;BMP180;6932;51.438;5.470;2022-11-11T07:43:31;102573.00;;;13.70
15079;BMP180;6932;51.438;5.470;2022-11-11T07:46:00;102592.00;;;13.70
15079;BMP180;6932;51.438;5.470;2022-11-11T07:48:25;102591.00;;;13.70
15079;BMP180;6932;51.438;5.470;2022-11-11T07:50:52;102591.00;;;13.80
15079;BMP180;6932;51.438;5.470;2022-11-11T07:53:24;102596.00;;;13.80
15079;BMP180;6932;51.438;5.470;2022-11-11T07:55:53;102593.00;;;13.80
15079;BMP180;6932;51.438;5.470;2022-11-11T07:58:22;102587.00;;;13.80
15079;BMP180;6932;51.438;5.470;2022-11-11T08:00:48;102602.00;;;13.90
15079;BMP180;6932;51.438;5.470;2022-11-11T08:03:17;102602.00;;;13.90
15079;BMP180;6932;51.438;5.470;2022-11-11T08:05:43;102606.00;;;13.90
15079;BMP180;6932;51.438;5.470;2022-11-11T08:08:10;102606.00;;;13.90
15079;BMP180;6932;51.438;5.470;2022-11-11T08:10:39;102613.00;;;14.00
15079;BMP180;6932;51.438;5.470;2022-11-11T08:13:05;102610.00;;;14.00
15079;BMP180;6932;51.438;5.470;2022-11-11T08:15:49;102617.00;;;14.00
15079;BMP180;6932;51.438;5.470;2022-11-11T08:18:18;102628.00;;;14.10
15079;BMP180;6932;51.438;5.470;2022-11-11T08:20:44;102628.00;;;14.10
15079;BMP180;6932;51.438;5.470;2022-11-11T08:23:09;102627.00;;;14.20
15079;BMP180;6932;51.438;5.470;2022-11-11T08:25:36;102633.00;;;14.20
15079;BMP180;6932;51.438;5.470;2022-11-11T08:28:04;102633.00;;;14.30
15079;BMP180;6932;51.438;5.470;2022-11-11T08:30:34;102635.00;;;14.30
15079;BMP180;6932;51.438;5.470;2022-11-11T08:33:05;102641.00;;;14.40
15079;BMP180;6932;51.438;5.470;2022-11-11T08:35:34;102646.00;;;14.40
15079;BMP180;6932;51.438;5.470;2022-11-11T08:38:02;102649.00;;;14.50
15079;BMP180;6932;51.438;5.470;2022-11-11T08:40:31;102646.00;;;14.60
15079;BMP180;6932;51.438;5.470;2022-11-11T08:42:58;102643.00;;;14.60
15079;BMP180;6932;51.438;5.470;2022-11-11T08:45:26;102658.00;;;14.70
15079;BMP180;6932;51.438;5.470;2022-11-11T08:47:55;102654.00;;;14.80
15079;BMP180;6932;51.438;5.470;2022-11-11T08:50:21;102656.00;;;14.90
15079;BMP180;6932;51.438;5.470;2022-11-11T08:52:51;102644.00;;;15.00
15079;BMP180;6932;51.438;5.470;2022-11-11T08:55:27;102655.00;;;15.10
15079;BMP180;6932;51.438;5.470;2022-11-11T08:58:01;102653.00;;;15.20
15079;BMP180;6932;51.438;5.470;2022-11-11T09:00:32;102655.00;;;15.30
15079;BMP180;6932;51.438;5.470;2022-11-11T09:03:37;102653.00;;;15.40
15079;BMP180;6932;51.438;5.470;2022-11-11T09:06:45;102660.00;;;15.50
15079;BMP180;6932;51.438;5.470;2022-11-11T09:09:15;102662.00;;;15.50
15079;BMP180;6932;51.438;5.470;2022-11-11T09:12:23;102567.00;;;15.70
15079;BMP180;6932;51.438;5.470;2022-11-11T09:14:58;102566.00;;;15.60
15079;BMP180;6932;51.438;5.470;2022-11-11T09:18:04;102563.00;;;15.40
15079;BMP180;6932;51.438;5.470;2022-11-11T09:21:15;102570.00;;;15.20
15079;BMP180;6932;51.438;5.470;2022-11-11T09:27:32;102568.00;;;15.00
15079;BMP180;6932;51.438;5.470;2022-11-11T09:33:21;102577.00;;;14.90
15079;BMP180;6932;51.438;5.470;2022-11-11T09:44:03;102674.00;;;15.40
15079;BMP180;6932;51.438;5.470;2022-11-11T09:50:29;102676.00;;;15.80
15079;BMP180;6932;51.438;5.470;2022-11-11T09:53:29;102674.00;;;16.00
15079;BMP180;6932;51.438;5.470;2022-11-11T09:56:07;102680.00;;;16.10
15079;BMP180;6932;51.438;5.470;2022-11-11T09:58:43;102683.00;;;16.30
15079;BMP180;6932;51.438;5.470;2022-11-11T10:01:21;102673.00;;;16.40
15079;BMP180;6932;51.438;5.470;2022-11-11T10:04:29;102685.00;;;16.50
15079;BMP180;6932;51.438;5.470;2022-11-11T10:07:27;102685.00;;;16.70
15079;BMP180;6932;51.438;5.470;2022-11-11T10:10:11;102683.00;;;16.80
15079;BMP180;6932;51.438;5.470;2022-11-11T10:12:48;102685.00;;;16.90
15079;BMP180;6932;51.438;5.470;2022-11-11T10:15:16;102693.00;;;17.00
15079;BMP180;6932;51.438;5.470;2022-11-11T10:17:56;102683.00;;;17.10
15079;BMP180;6932;51.438;5.470;2022-11-11T10:20:39;102678.00;;;17.20
15079;BMP180;6932;51.438;5.470;2022-11-11T10:23:14;102679.00;;;17.30
15079;BMP180;6932;51.438;5.470;2022-11-11T10:25:53;102685.00;;;17.40
15079;BMP180;6932;51.438;5.470;2022-11-11T10:28:25;102678.00;;;17.50
15079;BMP180;6932;51.438;5.470;2022-11-11T10:30:54;102680.00;;;17.60
15079;BMP180;6932;51.438;5.470;2022-11-11T10:33:29;102671.00;;;17.70
15079;BMP180;6932;51.438;5.470;2022-11-11T10:36:02;102683.00;;;17.70
15079;BMP180;6932;51.438;5.470;2022-11-11T10:38:43;102683.00;;;17.80
15079;BMP180;6932;51.438;5.470;2022-11-11T10:41:20;102688.00;;;17.90
15079;BMP180;6932;51.438;5.470;2022-11-11T10:43:47;102684.00;;;17.90
15079;BMP180;6932;51.438;5.470;2022-11-11T10:46:29;102688.00;;;18.00
15079;BMP180;6932;51.438;5.470;2022-11-11T10:49:06;102686.00;;;18.10
15079;BMP180;6932;51.438;5.470;2022-11-11T10:51:48;102684.00;;;18.20
15079;BMP180;6932;51.438;5.470;2022-11-11T10:54:22;102696.00;;;18.20
15079;BMP180;6932;51.438;5.470;2022-11-11T10:56:58;102695.00;;;18.20
15079;BMP180;6932;51.438;5.470;2022-11-11T10:59:34;102683.00;;;18.30
15079;BMP180;6932;51.438;5.470;2022-11-11T11:02:22;102679.00;;;18.30
15079;BMP180;6932;51.438;5.470;2022-11-11T11:07:46;102688.00;;;18.40
15079;BMP180;6932;51.438;5.470;2022-11-11T11:10:31;102681.00;;;18.40
15079;BMP180;6932;51.438;5.470;2022-11-11T11:13:31;102676.00;;;18.40
15079;BMP180;6932;51.438;5.470;2022-11-11T11:16:16;102666.00;;;18.40
15079;BMP180;6932;51.438;5.470;2022-11-11T11:18:42;102671.00;;;18.40
15079;BMP180;6932;51.438;5.470;2022-11-11T11:21:09;102669.00;;;18.40
15079;BMP180;6932;51.438;5.470;2022-11-11T11:23:45;102675.00;;;18.40
15079;BMP180;6932;51.438;5.470;2022-11-11T11:26:13;102675.00;;;18.40
15079;BMP180;6932;51.438;5.470;2022-11-11T11:29:25;102672.00;;;18.40
15079;BMP180;6932;51.438;5.470;2022-11-11T11:31:53;102667.00;;;18.40
15079;BMP180;6932;51.438;5.470;2022-11-11T11:34:19;102668.00;;;18.40
15079;BMP180;6932;51.438;5.470;2022-11-11T11:36:59;102663.00;;;18.50
15079;BMP180;6932;51.438;5.470;2022-11-11T11:39:37;102670.00;;;18.50
15079;BMP180;6932;51.438;5.470;2022-11-11T11:42:05;102657.00;;;18.50
15079;BMP180;6932;51.438;5.470;2022-11-11T11:44:35;102670.00;;;18.50
15079;BMP180;6932;51.438;5.470;2022-11-11T11:53:08;102662.00;;;18.60
15079;BMP180;6932;51.438;5.470;2022-11-11T11:56:03;102657.00;;;18.70
15079;BMP180;6932;51.438;5.470;2022-11-11T12:01:25;102649.00;;;18.80
15079;BMP180;6932;51.438;5.470;2022-11-11T12:13:17;102650.00;;;18.80
15079;BMP180;6932;51.438;5.470;2022-11-11T12:19:36;102652.00;;;18.80
15079;BMP180;6932;51.438;5.470;2022-11-11T12:22:39;102638.00;;;18.80
15079;BMP180;6932;51.438;5.470;2022-11-11T12:25:18;102632.00;;;18.80
15079;BMP180;6932;51.438;5.470;2022-11-11T12:30:28;102632.00;;;18.80
15079;BMP180;6932;51.438;5.470;2022-11-11T12:39:21;102626.00;;;18.90
15079;BMP180;6932;51.438;5.470;2022-11-11T12:45:13;102635.00;;;18.90
15079;BMP180;6932;51.438;5.470;2022-11-11T12:56:54;102620.00;;;19.00
15079;BMP180;6932;51.438;5.470;2022-11-11T13:06:38;102619.00;;;19.00
15079;BMP180;6932;51.438;5.470;2022-11-11T13:14:39;102618.00;;;19.00
15079;BMP180;6932;51.438;5.470;2022-11-11T13:17:14;102606.00;;;19.00
15079;BMP180;6932;51.438;5.470;2022-11-11T13:19:52;102599.00;;;19.10
15079;BMP180;6932;51.438;5.470;2022-11-11T13:22:28;102605.00;;;19.10
15079;BMP180;6932;51.438;5.470;2022-11-11T13:24:56;102608.00;;;19.10
15079;BMP180;6932;51.438;5.470;2022-11-11T13:30:47;102598.00;;;19.10
15079;BMP180;6932;51.438;5.470;2022-11-11T13:33:18;102617.00;;;19.10
15079;BMP180;6932;51.438;5.470;2022-11-11T13:35:54;102604.00;;;19.10
15079;BMP180;6932;51.438;5.470;2022-11-11T13:38:45;102612.00;;;19.10
15079;BMP180;6932;51.438;5.470;2022-11-11T13:41:20;102604.00;;;19.10
15079;BMP180;6932;51.438;5.470;2022-11-11T13:43:50;102613.00;;;19.10
15079;BMP180;6932;51.438;5.470;2022-11-11T13:48:54;102618.00;;;19.10
15079;BMP180;6932;51.438;5.470;2022-11-11T13:51:42;102614.00;;;19.10
15079;BMP180;6932;51.438;5.470;2022-11-11T13:54:21;102608.00;;;19.10
15079;BMP180;6932;51.438;5.470;2022-11-11T13:56:49;102620.00;;;19.00
15079;BMP180;6932;51.438;5.470;2022-11-11T13:59:33;102609.00;;;19.00
15079;BMP180;6932;51.438;5.470;2022-11-11T14:07:46;102613.00;;;19.00
15079;BMP180;6932;51.438;5.470;2022-11-11T14:12:54;102607.00;;;19.00
15079;BMP180;6932;51.438;5.470;2022-11-11T14:15:43;102603.00;;;19.00
15079;BMP180;6932;51.438;5.470;2022-11-11T14:20:52;102617.00;;;18.90
15079;BMP180;6932;51.438;5.470;2022-11-11T14:28:49;102608.00;;;18.90
15079;BMP180;6932;51.438;5.470;2022-11-11T14:41:57;102614.00;;;18.80
15079;BMP180;6932;51.438;5.470;2022-11-11T14:52:37;102613.00;;;18.80
15079;BMP180;6932;51.438;5.470;2022-11-11T14:55:20;102614.00;;;18.70
15079;BMP180;6932;51.438;5.470;2022-11-11T15:00:22;102610.00;;;18.70
15079;BMP180;6932;51.438;5.470;2022-11-11T15:05:46;102611.00;;;18.70
15079;BMP180;6932;51.438;5.470;2022-11-11T15:08:23;102611.00;;;18.70
15079;BMP180;6932;51.438;5.470;2022-11-11T15:11:36;102606.00;;;18.60
15079;BMP180;6932;51.438;5.470;2022-11-11T15:14:29;102607.00;;;18.60
15079;BMP180;6932;51.438;5.470;2022-11-11T15:25:57;102610.00;;;18.40
15079;BMP180;6932;51.438;5.470;2022-11-11T15:28:59;102612.00;;;18.40
15079;BMP180;6932;51.438;5.470;2022-11-11T15:34:39;102628.00;;;18.30
15079;BMP180;6932;51.438;5.470;2022-11-11T15:37:10;102624.00;;;18.30
15079;BMP180;6932;51.438;5.470;2022-11-11T15:39:54;102623.00;;;18.30
15079;BMP180;6932;51.438;5.470;2022-11-11T15:42:42;102618.00;;;18.20
15079;BMP180;6932;51.438;5.470;2022-11-11T15:45:27;102617.00;;;18.20
15079;BMP180;6932;51.438;5.470;2022-11-11T15:47:57;102614.00;;;18.20
15079;BMP180;6932;51.438;5.470;2022-11-11T15:53:00;102618.00;;;18.10
15079;BMP180;6932;51.438;5.470;2022-11-11T15:55:35;102624.00;;;18.10
15079;BMP180;6932;51.438;5.470;2022-11-11T15:58:15;102630.00;;;18.10
15079;BMP180;6932;51.438;5.470;2022-11-11T16:00:44;102626.00;;;18.00
15079;BMP180;6932;51.438;5.470;2022-11-11T16:03:28;102628.00;;;18.00
15079;BMP180;6932;51.438;5.470;2022-11-11T16:05:56;102624.00;;;17.90
15079;BMP180;6932;51.438;5.470;2022-11-11T16:08:22;102626.00;;;18.00
15079;BMP180;6932;51.438;5.470;2022-11-11T16:10:56;102626.00;;;17.90
15079;BMP180;6932;51.438;5.470;2022-11-11T16:13:52;102631.00;;;17.90
15079;BMP180;6932;51.438;5.470;2022-11-11T16:16:30;102634.00;;;17.90
15079;BMP180;6932;51.438;5.470;2022-11-11T16:19:30;102646.00;;;17.80
15079;BMP180;6932;51.438;5.470;2022-11-11T16:22:13;102557.00;;;17.80
15079;BMP180;6932;51.438;5.470;2022-11-11T16:24:42;102552.00;;;17.70
15079;BMP180;6932;51.438;5.470;2022-11-11T16:27:20;102551.00;;;17.50
15079;BMP180;6932;51.438;5.470;2022-11-11T16:29:47;102558.00;;;17.20
15079;BMP180;6932;51.438;5.470;2022-11-11T16:32:33;102539.00;;;17.10
15079;BMP180;6932;51.438;5.470;2022-11-11T16:35:19;102552.00;;;16.90
15079;BMP180;6932;51.438;5.470;2022-11-11T16:37:52;102551.00;;;16.80
15079;BMP180;6932;51.438;5.470;2022-11-11T16:40:34;102559.00;;;16.70
15079;BMP180;6932;51.438;5.470;2022-11-11T16:43:40;102543.00;;;16.60
15079;BMP180;6932;51.438;5.470;2022-11-11T16:46:14;102548.00;;;16.50
15079;BMP180;6932;51.438;5.470;2022-11-11T16:48:50;102645.00;;;16.40
15079;BMP180;6932;51.438;5.470;2022-11-11T16:51:41;102648.00;;;16.50
15079;BMP180;6932;51.438;5.470;2022-11-11T16:54:21;102638.00;;;16.60
15079;BMP180;6932;51.438;5.470;2022-11-11T16:56:56;102634.00;;;16.70
15079;BMP180;6932;51.438;5.470;2022-11-11T16:59:42;102645.00;;;16.80
15079;BMP180;6932;51.438;5.470;2022-11-11T17:02:22;102642.00;;;16.90
15079;BMP180;6932;51.438;5.470;2022-11-11T17:04:51;102642.00;;;16.90
15079;BMP180;6932;51.438;5.470;2022-11-11T17:07:35;102643.00;;;17.00
15079;BMP180;6932;51.438;5.470;2022-11-11T17:12:37;102638.00;;;17.00
15079;BMP180;6932;51.438;5.470;2022-11-11T17:15:11;102640.00;;;17.10
15079;BMP180;6932;51.438;5.470;2022-11-11T17:17:40;102634.00;;;17.10
15079;BMP180;6932;51.438;5.470;2022-11-11T17:20:18;102639.00;;;17.10